sensor_id;sensor_type;location;lat;lon;timestamp;temperature;humidity
2158;DHT22;41972;48.774;9.282;2023-09-07T00:01:45;14.30;99.90
2158;DHT22;41972;48.774;9.282;2023-09-07T00:04:11;14.30;99.90
2158;DHT22;41972;48.774;9.282;2023-09-07T00:06:39;14.30;99.90
2158;DHT22;41972;48.774;9.282;2023-09-07T00:09:04;14.20;99.90
2158;DHT22;41972;48.774;9.282;2023-09-07T00:11:31;14.20;99.90
2158;DHT22;41972;48.774;9.282;2023-09-07T00:13:57;14.20;99.90
2158;DHT22;41972;48.774;9.282;2023-09-07T00:16:24;14.00;99.90
2158;DHT22;41972;48.774;9.282;2023-09-07T00:18:50;13.90;99.90
2158;DHT22;41972;48.774;9.282;2023-09-07T00:21:16;13.90;99.90
2158;DHT22;41972;48.774;9.282;2023-09-07T00:23:41;13.80;99.90
2158;DHT22;41972;48.774;9.282;2023-09-07T00:26:07;13.80;99.90
2158;DHT22;41972;48.774;9.282;2023-09-07T00:28:33;13.80;99.90
2158;DHT22;41972;48.774;9.282;2023-09-07T00:30:59;13.70;99.90
2158;DHT22;41972;48.774;9.282;2023-09-07T00:33:24;13.80;99.90
2158;DHT22;41972;48.774;9.282;2023-09-07T00:35:50;13.80;99.90
2158;DHT22;41972;48.774;9.282;2023-09-07T00:38:15;13.80;99.90
2158;DHT22;41972;48.774;9.282;2023-09-07T00:40:44;13.70;99.90
2158;DHT22;41972;48.774;9.282;2023-09-07T00:43:12;13.90;99.90
2158;DHT22;41972;48.774;9.282;2023-09-07T00:45:39;13.80;99.90
2158;DHT22;41972;48.774;9.282;2023-09-07T00:48:05;13.70;99.90
2158;DHT22;41972;48.774;9.282;2023-09-07T00:50:31;13.70;99.90
2158;DHT22;41972;48.774;9.282;2023-09-07T00:52:58;13.70;99.90
2158;DHT22;41972;48.774;9.282;2023-09-07T00:55:24;13.80;99.90
2158;DHT22;41972;48.774;9.282;2023-09-07T00:57:50;13.80;99.90
2158;DHT22;41972;48.774;9.282;2023-09-07T01:00:16;13.80;99.90
2158;DHT22;41972;48.774;9.282;2023-09-07T01:02:42;13.90;99.90
2158;DHT22;41972;48.774;9.282;2023-09-07T01:05:10;13.90;99.90
2158;DHT22;41972;48.774;9.282;2023-09-07T01:07:49;13.80;99.90
2158;DHT22;41972;48.774;9.282;2023-09-07T01:10:16;13.80;99.90
2158;DHT22;41972;48.774;9.282;2023-09-07T01:12:41;13.80;99.90
2158;DHT22;41972;48.774;9.282;2023-09-07T01:15:07;13.90;99.90
2158;DHT22;41972;48.774;9.282;2023-09-07T01:17:34;13.80;99.90
2158;DHT22;41972;48.774;9.282;2023-09-07T01:20:04;13.50;99.90
2158;DHT22;41972;48.774;9.282;2023-09-07T01:22:35;13.30;99.90
2158;DHT22;41972;48.774;9.282;2023-09-07T01:25:02;13.20;99.90
2158;DHT22;41972;48.774;9.282;2023-09-07T01:27:28;13.20;99.90
2158;DHT22;41972;48.774;9.282;2023-09-07T01:29:54;13.20;99.90
2158;DHT22;41972;48.774;9.282;2023-09-07T01:32:20;13.10;99.90
2158;DHT22;41972;48.774;9.282;2023-09-07T01:34:45;13.20;99.90
2158;DHT22;41972;48.774;9.282;2023-09-07T01:37:11;13.20;99.90
2158;DHT22;41972;48.774;9.282;2023-09-07T01:39:36;13.20;99.90
2158;DHT22;41972;48.774;9.282;2023-09-07T01:42:02;13.30;99.90
2158;DHT22;41972;48.774;9.282;2023-09-07T01:44:28;13.30;99.90
2158;DHT22;41972;48.774;9.282;2023-09-07T01:46:55;13.20;99.90
2158;DHT22;41972;48.774;9.282;2023-09-07T01:49:20;13.20;99.90
2158;DHT22;41972;48.774;9.282;2023-09-07T01:51:46;13.30;99.90
2158;DHT22;41972;48.774;9.282;2023-09-07T01:54:11;13.20;99.90
2158;DHT22;41972;48.774;9.282;2023-09-07T01:56:37;13.10;99.90
2158;DHT22;41972;48.774;9.282;2023-09-07T01:59:04;13.10;99.90
2158;DHT22;41972;48.774;9.282;2023-09-07T02:01:31;13.10;99.90
2158;DHT22;41972;48.774;9.282;2023-09-07T02:03:57;13.20;99.90
2158;DHT22;41972;48.774;9.282;2023-09-07T02:06:23;13.20;99.90
2158;DHT22;41972;48.774;9.282;2023-09-07T02:08:48;13.30;99.90
2158;DHT22;41972;48.774;9.282;2023-09-07T02:11:14;13.20;99.90
2158;DHT22;41972;48.774;9.282;2023-09-07T02:13:47;13.10;99.90
2158;DHT22;41972;48.774;9.282;2023-09-07T02:16:12;13.00;99.90
2158;DHT22;41972;48.774;9.282;2023-09-07T02:18:38;13.00;99.90
2158;DHT22;41972;48.774;9.282;2023-09-07T02:21:09;13.00;99.90
2158;DHT22;41972;48.774;9.282;2023-09-07T02:23:34;13.00;99.90
2158;DHT22;41972;48.774;9.282;2023-09-07T02:26:02;12.90;99.90
2158;DHT22;41972;48.774;9.282;2023-09-07T02:28:28;12.80;99.90
2158;DHT22;41972;48.774;9.282;2023-09-07T02:30:54;12.70;99.90
2158;DHT22;41972;48.774;9.282;2023-09-07T02:33:19;12.70;99.90
2158;DHT22;41972;48.774;9.282;2023-09-07T02:35:47;12.70;99.90
2158;DHT22;41972;48.774;9.282;2023-09-07T02:38:13;12.60;99.90
2158;DHT22;41972;48.774;9.282;2023-09-07T02:40:42;12.60;99.90
2158;DHT22;41972;48.774;9.282;2023-09-07T02:43:09;12.70;99.90
2158;DHT22;41972;48.774;9.282;2023-09-07T02:45:36;12.70;99.90
2158;DHT22;41972;48.774;9.282;2023-09-07T02:48:02;12.80;99.90
2158;DHT22;41972;48.774;9.282;2023-09-07T02:50:33;12.80;99.90
2158;DHT22;41972;48.774;9.282;2023-09-07T02:52:59;12.80;99.90
2158;DHT22;41972;48.774;9.282;2023-09-07T02:55:25;12.80;99.90
2158;DHT22;41972;48.774;9.282;2023-09-07T02:57:51;12.80;99.90
2158;DHT22;41972;48.774;9.282;2023-09-07T03:00:17;12.70;99.90
2158;DHT22;41972;48.774;9.282;2023-09-07T03:02:43;12.80;99.90
2158;DHT22;41972;48.774;9.282;2023-09-07T03:05:09;12.60;99.90
2158;DHT22;41972;48.774;9.282;2023-09-07T03:07:36;12.40;99.90
2158;DHT22;41972;48.774;9.282;2023-09-07T03:10:05;12.80;99.90
2158;DHT22;41972;48.774;9.282;2023-09-07T03:12:30;12.40;99.90
2158;DHT22;41972;48.774;9.282;2023-09-07T03:14:56;12.40;99.90
2158;DHT22;41972;48.774;9.282;2023-09-07T03:17:21;12.30;99.90
2158;DHT22;41972;48.774;9.282;2023-09-07T03:19:47;12.30;99.90
2158;DHT22;41972;48.774;9.282;2023-09-07T03:22:13;12.30;99.90
2158;DHT22;41972;48.774;9.282;2023-09-07T03:24:39;12.40;99.90
2158;DHT22;41972;48.774;9.282;2023-09-07T03:27:05;12.30;99.90
2158;DHT22;41972;48.774;9.282;2023-09-07T03:29:31;12.20;99.90
2158;DHT22;41972;48.774;9.282;2023-09-07T03:31:59;12.20;99.90
2158;DHT22;41972;48.774;9.282;2023-09-07T03:34:25;12.20;99.90
2158;DHT22;41972;48.774;9.282;2023-09-07T03:36:50;12.20;99.90
2158;DHT22;41972;48.774;9.282;2023-09-07T03:39:16;12.30;99.90
2158;DHT22;41972;48.774;9.282;2023-09-07T03:41:43;12.20;99.90
2158;DHT22;41972;48.774;9.282;2023-09-07T03:44:10;12.10;99.90
2158;DHT22;41972;48.774;9.282;2023-09-07T03:46:35;12.10;99.90
2158;DHT22;41972;48.774;9.282;2023-09-07T03:49:01;12.20;99.90
2158;DHT22;41972;48.774;9.282;2023-09-07T03:51:27;12.20;99.90
2158;DHT22;41972;48.774;9.282;2023-09-07T03:53:52;12.10;99.90
2158;DHT22;41972;48.774;9.282;2023-09-07T03:56:18;12.00;99.90
2158;DHT22;41972;48.774;9.282;2023-09-07T03:58:43;11.90;99.90
2158;DHT22;41972;48.774;9.282;2023-09-07T04:01:09;11.90;99.90
2158;DHT22;41972;48.774;9.282;2023-09-07T04:03:34;11.90;99.90
2158;DHT22;41972;48.774;9.282;2023-09-07T04:06:00;11.90;99.90
2158;DHT22;41972;48.774;9.282;2023-09-07T04:08:25;11.80;99.90
2158;DHT22;41972;48.774;9.282;2023-09-07T04:10:52;11.70;99.90
2158;DHT22;41972;48.774;9.282;2023-09-07T04:13:17;11.80;99.90
2158;DHT22;41972;48.774;9.282;2023-09-07T04:15:46;11.80;99.90
2158;DHT22;41972;48.774;9.282;2023-09-07T04:18:12;11.90;99.90
2158;DHT22;41972;48.774;9.282;2023-09-07T04:20:38;11.90;99.90
2158;DHT22;41972;48.774;9.282;2023-09-07T04:23:05;11.90;99.90
2158;DHT22;41972;48.774;9.282;2023-09-07T04:25:30;12.00;99.90
2158;DHT22;41972;48.774;9.282;2023-09-07T04:27:58;12.00;99.90
2158;DHT22;41972;48.774;9.282;2023-09-07T04:30:23;12.00;99.90
2158;DHT22;41972;48.774;9.282;2023-09-07T04:32:49;11.90;99.90
2158;DHT22;41972;48.774;9.282;2023-09-07T04:35:15;11.80;99.90
2158;DHT22;41972;48.774;9.282;2023-09-07T04:37:44;11.70;99.90
2158;DHT22;41972;48.774;9.282;2023-09-07T04:40:10;11.80;99.90
2158;DHT22;41972;48.774;9.282;2023-09-07T04:42:36;11.70;99.90
2158;DHT22;41972;48.774;9.282;2023-09-07T04:45:07;11.60;99.90
2158;DHT22;41972;48.774;9.282;2023-09-07T04:47:33;11.70;99.90
2158;DHT22;41972;48.774;9.282;2023-09-07T04:49:59;12.00;99.90
2158;DHT22;41972;48.774;9.282;2023-09-07T04:52:25;12.00;99.90
2158;DHT22;41972;48.774;9.282;2023-09-07T04:54:50;12.00;99.90
2158;DHT22;41972;48.774;9.282;2023-09-07T04:57:16;12.10;99.90
2158;DHT22;41972;48.774;9.282;2023-09-07T04:59:43;12.10;99.90
2158;DHT22;41972;48.774;9.282;2023-09-07T05:02:09;12.10;99.90
2158;DHT22;41972;48.774;9.282;2023-09-07T05:04:34;11.90;99.90
2158;DHT22;41972;48.774;9.282;2023-09-07T05:07:00;11.80;99.90
2158;DHT22;41972;48.774;9.282;2023-09-07T05:09:25;11.90;99.90
2158;DHT22;41972;48.774;9.282;2023-09-07T05:11:53;12.00;99.90
2158;DHT22;41972;48.774;9.282;2023-09-07T05:14:19;12.10;99.90
2158;DHT22;41972;48.774;9.282;2023-09-07T05:16:44;11.90;99.90
2158;DHT22;41972;48.774;9.282;2023-09-07T05:19:10;11.90;99.90
2158;DHT22;41972;48.774;9.282;2023-09-07T05:21:36;12.00;99.90
2158;DHT22;41972;48.774;9.282;2023-09-07T05:24:01;11.90;99.90
2158;DHT22;41972;48.774;9.282;2023-09-07T05:26:27;12.00;99.90
2158;DHT22;41972;48.774;9.282;2023-09-07T05:28:53;12.10;99.90
2158;DHT22;41972;48.774;9.282;2023-09-07T05:31:19;12.10;99.90
2158;DHT22;41972;48.774;9.282;2023-09-07T05:33:44;12.30;99.90
2158;DHT22;41972;48.774;9.282;2023-09-07T05:36:10;12.30;99.90
2158;DHT22;41972;48.774;9.282;2023-09-07T05:38:35;12.30;99.90
2158;DHT22;41972;48.774;9.282;2023-09-07T05:41:01;12.20;99.90
2158;DHT22;41972;48.774;9.282;2023-09-07T05:43:27;12.30;99.90
2158;DHT22;41972;48.774;9.282;2023-09-07T05:45:52;12.40;99.90
2158;DHT22;41972;48.774;9.282;2023-09-07T05:48:18;12.40;99.90
2158;DHT22;41972;48.774;9.282;2023-09-07T05:50:44;12.40;99.90
2158;DHT22;41972;48.774;9.282;2023-09-07T05:53:10;12.40;99.90
2158;DHT22;41972;48.774;9.282;2023-09-07T05:55:36;12.60;99.90
2158;DHT22;41972;48.774;9.282;2023-09-07T05:58:06;12.50;99.90
2158;DHT22;41972;48.774;9.282;2023-09-07T06:00:32;12.80;99.90
2158;DHT22;41972;48.774;9.282;2023-09-07T06:02:57;13.10;99.90
2158;DHT22;41972;48.774;9.282;2023-09-07T06:05:23;14.00;99.90
2158;DHT22;41972;48.774;9.282;2023-09-07T06:07:50;14.80;99.90
2158;DHT22;41972;48.774;9.282;2023-09-07T06:10:16;15.70;99.90
2158;DHT22;41972;48.774;9.282;2023-09-07T06:12:42;15.20;99.90
2158;DHT22;41972;48.774;9.282;2023-09-07T06:15:08;15.40;99.90
2158;DHT22;41972;48.774;9.282;2023-09-07T06:17:34;15.80;99.90
2158;DHT22;41972;48.774;9.282;2023-09-07T06:20:00;15.80;99.90
2158;DHT22;41972;48.774;9.282;2023-09-07T06:22:25;16.30;99.90
2158;DHT22;41972;48.774;9.282;2023-09-07T06:24:51;16.50;99.90
2158;DHT22;41972;48.774;9.282;2023-09-07T06:27:16;16.80;99.90
2158;DHT22;41972;48.774;9.282;2023-09-07T06:29:42;17.40;99.90
2158;DHT22;41972;48.774;9.282;2023-09-07T06:32:08;17.70;99.90
2158;DHT22;41972;48.774;9.282;2023-09-07T06:34:33;17.80;99.90
2158;DHT22;41972;48.774;9.282;2023-09-07T06:36:59;19.20;99.90
2158;DHT22;41972;48.774;9.282;2023-09-07T06:39:24;20.00;99.90
2158;DHT22;41972;48.774;9.282;2023-09-07T06:41:51;21.10;99.90
2158;DHT22;41972;48.774;9.282;2023-09-07T06:44:16;21.30;99.90
2158;DHT22;41972;48.774;9.282;2023-09-07T06:46:42;21.10;99.90
2158;DHT22;41972;48.774;9.282;2023-09-07T06:49:07;21.50;99.90
2158;DHT22;41972;48.774;9.282;2023-09-07T06:51:33;21.00;99.90
2158;DHT22;41972;48.774;9.282;2023-09-07T06:53:59;21.00;99.90
2158;DHT22;41972;48.774;9.282;2023-09-07T06:56:25;21.30;99.90
2158;DHT22;41972;48.774;9.282;2023-09-07T06:58:52;22.20;99.90
2158;DHT22;41972;48.774;9.282;2023-09-07T07:01:18;22.20;99.90
2158;DHT22;41972;48.774;9.282;2023-09-07T07:03:43;22.90;99.90
2158;DHT22;41972;48.774;9.282;2023-09-07T07:06:09;24.70;99.90
2158;DHT22;41972;48.774;9.282;2023-09-07T07:08:35;23.20;99.90
2158;DHT22;41972;48.774;9.282;2023-09-07T07:11:00;21.20;99.90
2158;DHT22;41972;48.774;9.282;2023-09-07T07:13:26;21.20;99.90
2158;DHT22;41972;48.774;9.282;2023-09-07T07:15:51;22.40;99.90
2158;DHT22;41972;48.774;9.282;2023-09-07T07:18:17;22.90;99.90
2158;DHT22;41972;48.774;9.282;2023-09-07T07:20:43;23.70;99.90
2158;DHT22;41972;48.774;9.282;2023-09-07T07:23:10;24.10;99.90
2158;DHT22;41972;48.774;9.282;2023-09-07T07:25:36;24.60;99.90
2158;DHT22;41972;48.774;9.282;2023-09-07T07:28:03;23.90;99.90
2158;DHT22;41972;48.774;9.282;2023-09-07T07:30:36;25.80;99.90
2158;DHT22;41972;48.774;9.282;2023-09-07T07:33:03;26.60;99.90
2158;DHT22;41972;48.774;9.282;2023-09-07T07:35:35;27.30;99.90
2158;DHT22;41972;48.774;9.282;2023-09-07T07:38:02;26.90;99.90
2158;DHT22;41972;48.774;9.282;2023-09-07T07:40:29;26.80;99.90
2158;DHT22;41972;48.774;9.282;2023-09-07T07:42:55;27.20;99.90
2158;DHT22;41972;48.774;9.282;2023-09-07T07:45:20;26.80;99.90
2158;DHT22;41972;48.774;9.282;2023-09-07T07:47:50;26.10;99.90
2158;DHT22;41972;48.774;9.282;2023-09-07T07:50:16;26.70;99.90
2158;DHT22;41972;48.774;9.282;2023-09-07T07:52:42;26.00;99.90
2158;DHT22;41972;48.774;9.282;2023-09-07T07:55:08;26.00;99.90
2158;DHT22;41972;48.774;9.282;2023-09-07T07:57:33;28.70;96.50
2158;DHT22;41972;48.774;9.282;2023-09-07T07:59:59;31.40;76.90
2158;DHT22;41972;48.774;9.282;2023-09-07T08:02:25;27.90;99.90
2158;DHT22;41972;48.774;9.282;2023-09-07T08:04:50;26.80;99.90
2158;DHT22;41972;48.774;9.282;2023-09-07T08:07:16;29.40;99.90
2158;DHT22;41972;48.774;9.282;2023-09-07T08:09:42;29.60;99.90
2158;DHT22;41972;48.774;9.282;2023-09-07T08:12:08;27.30;99.90
2158;DHT22;41972;48.774;9.282;2023-09-07T08:14:33;27.30;99.90
2158;DHT22;41972;48.774;9.282;2023-09-07T08:17:00;29.00;99.90
2158;DHT22;41972;48.774;9.282;2023-09-07T08:19:26;29.40;99.90
2158;DHT22;41972;48.774;9.282;2023-09-07T08:21:53;32.70;62.90
2158;DHT22;41972;48.774;9.282;2023-09-07T08:24:19;34.80;47.20
2158;DHT22;41972;48.774;9.282;2023-09-07T08:26:44;33.30;33.80
2158;DHT22;41972;48.774;9.282;2023-09-07T08:29:10;33.50;45.60
2158;DHT22;41972;48.774;9.282;2023-09-07T08:31:36;36.20;24.30
2158;DHT22;41972;48.774;9.282;2023-09-07T08:34:05;32.70;26.90
2158;DHT22;41972;48.774;9.282;2023-09-07T08:36:31;33.30;24.50
2158;DHT22;41972;48.774;9.282;2023-09-07T08:39:01;34.90;21.90
2158;DHT22;41972;48.774;9.282;2023-09-07T08:41:32;33.70;20.20
2158;DHT22;41972;48.774;9.282;2023-09-07T08:43:59;31.50;25.40
2158;DHT22;41972;48.774;9.282;2023-09-07T08:46:26;32.40;24.60
2158;DHT22;41972;48.774;9.282;2023-09-07T08:48:54;32.30;22.80
2158;DHT22;41972;48.774;9.282;2023-09-07T08:51:21;32.20;21.40
2158;DHT22;41972;48.774;9.282;2023-09-07T08:53:49;30.30;25.10
2158;DHT22;41972;48.774;9.282;2023-09-07T08:56:16;30.30;26.50
2158;DHT22;41972;48.774;9.282;2023-09-07T08:58:42;33.70;21.40
2158;DHT22;41972;48.774;9.282;2023-09-07T09:01:10;35.90;17.40
2158;DHT22;41972;48.774;9.282;2023-09-07T09:03:36;35.00;15.80
2158;DHT22;41972;48.774;9.282;2023-09-07T09:06:03;35.90;12.70
2158;DHT22;41972;48.774;9.282;2023-09-07T09:08:28;33.80;12.80
2158;DHT22;41972;48.774;9.282;2023-09-07T09:11:02;35.00;12.90
2158;DHT22;41972;48.774;9.282;2023-09-07T09:13:32;32.90;14.00
2158;DHT22;41972;48.774;9.282;2023-09-07T09:16:01;33.90;15.10
2158;DHT22;41972;48.774;9.282;2023-09-07T09:18:27;35.80;16.20
2158;DHT22;41972;48.774;9.282;2023-09-07T09:20:56;37.20;12.10
2158;DHT22;41972;48.774;9.282;2023-09-07T09:23:25;39.30;7.70
2158;DHT22;41972;48.774;9.282;2023-09-07T09:25:55;37.80;6.30
2158;DHT22;41972;48.774;9.282;2023-09-07T09:28:21;40.00;1.00
2158;DHT22;41972;48.774;9.282;2023-09-07T09:30:48;37.60;1.20
2158;DHT22;41972;48.774;9.282;2023-09-07T09:33:14;37.60;3.00
2158;DHT22;41972;48.774;9.282;2023-09-07T09:35:42;39.40;1.00
2158;DHT22;41972;48.774;9.282;2023-09-07T09:38:08;40.20;1.00
2158;DHT22;41972;48.774;9.282;2023-09-07T09:40:35;37.50;1.00
2158;DHT22;41972;48.774;9.282;2023-09-07T09:43:02;37.20;1.00
2158;DHT22;41972;48.774;9.282;2023-09-07T09:45:29;39.80;1.00
2158;DHT22;41972;48.774;9.282;2023-09-07T09:47:55;42.80;1.00
2158;DHT22;41972;48.774;9.282;2023-09-07T09:50:27;43.10;1.00
2158;DHT22;41972;48.774;9.282;2023-09-07T09:52:55;40.80;1.00
2158;DHT22;41972;48.774;9.282;2023-09-07T09:55:22;38.70;1.00
2158;DHT22;41972;48.774;9.282;2023-09-07T09:57:47;39.00;1.00
2158;DHT22;41972;48.774;9.282;2023-09-07T10:00:13;40.10;1.00
2158;DHT22;41972;48.774;9.282;2023-09-07T10:03:09;39.30;1.00
2158;DHT22;41972;48.774;9.282;2023-09-07T10:05:36;35.20;1.00
2158;DHT22;41972;48.774;9.282;2023-09-07T10:08:08;33.20;1.00
2158;DHT22;41972;48.774;9.282;2023-09-07T10:10:36;33.40;1.00
2158;DHT22;41972;48.774;9.282;2023-09-07T10:13:02;32.60;1.00
2158;DHT22;41972;48.774;9.282;2023-09-07T10:15:29;33.20;1.00
2158;DHT22;41972;48.774;9.282;2023-09-07T10:20:48;36.00;1.00
2158;DHT22;41972;48.774;9.282;2023-09-07T10:23:15;35.60;1.00
2158;DHT22;41972;48.774;9.282;2023-09-07T10:25:40;37.20;1.00
2158;DHT22;41972;48.774;9.282;2023-09-07T10:28:18;38.90;1.00
2158;DHT22;41972;48.774;9.282;2023-09-07T10:30:44;36.00;1.00
2158;DHT22;41972;48.774;9.282;2023-09-07T10:33:20;37.80;1.00
2158;DHT22;41972;48.774;9.282;2023-09-07T10:35:46;38.20;1.00
2158;DHT22;41972;48.774;9.282;2023-09-07T10:38:14;35.70;1.00
2158;DHT22;41972;48.774;9.282;2023-09-07T10:40:43;37.60;1.00
2158;DHT22;41972;48.774;9.282;2023-09-07T10:43:09;37.50;1.00
2158;DHT22;41972;48.774;9.282;2023-09-07T10:45:35;38.20;1.00
2158;DHT22;41972;48.774;9.282;2023-09-07T10:48:02;39.00;1.00
2158;DHT22;41972;48.774;9.282;2023-09-07T10:50:29;36.30;1.00
2158;DHT22;41972;48.774;9.282;2023-09-07T10:52:55;35.70;1.00
2158;DHT22;41972;48.774;9.282;2023-09-07T10:55:21;34.10;1.00
2158;DHT22;41972;48.774;9.282;2023-09-07T10:57:47;32.70;1.00
2158;DHT22;41972;48.774;9.282;2023-09-07T11:00:14;32.90;1.10
2158;DHT22;41972;48.774;9.282;2023-09-07T11:02:41;32.30;1.90
2158;DHT22;41972;48.774;9.282;2023-09-07T11:05:07;31.90;1.30
2158;DHT22;41972;48.774;9.282;2023-09-07T11:07:33;31.10;6.10
2158;DHT22;41972;48.774;9.282;2023-09-07T11:10:00;30.20;11.20
2158;DHT22;41972;48.774;9.282;2023-09-07T11:12:25;30.20;11.90
2158;DHT22;41972;48.774;9.282;2023-09-07T11:14:51;28.30;14.10
2158;DHT22;41972;48.774;9.282;2023-09-07T11:17:26;27.20;26.00
2158;DHT22;41972;48.774;9.282;2023-09-07T11:19:52;27.10;51.50
2158;DHT22;41972;48.774;9.282;2023-09-07T11:22:18;26.90;66.20
2158;DHT22;41972;48.774;9.282;2023-09-07T11:24:45;27.50;69.90
2158;DHT22;41972;48.774;9.282;2023-09-07T11:27:11;27.20;67.20
2158;DHT22;41972;48.774;9.282;2023-09-07T11:29:37;26.90;80.30
2158;DHT22;41972;48.774;9.282;2023-09-07T11:32:08;27.00;71.90
2158;DHT22;41972;48.774;9.282;2023-09-07T11:34:34;26.30;82.50
2158;DHT22;41972;48.774;9.282;2023-09-07T11:37:02;26.50;80.60
2158;DHT22;41972;48.774;9.282;2023-09-07T11:39:28;26.40;85.50
2158;DHT22;41972;48.774;9.282;2023-09-07T11:41:54;26.50;80.40
2158;DHT22;41972;48.774;9.282;2023-09-07T11:44:20;26.30;85.50
2158;DHT22;41972;48.774;9.282;2023-09-07T11:46:46;26.10;86.70
2158;DHT22;41972;48.774;9.282;2023-09-07T11:49:11;26.30;91.00
2158;DHT22;41972;48.774;9.282;2023-09-07T11:51:37;26.20;86.80
2158;DHT22;41972;48.774;9.282;2023-09-07T11:54:03;25.90;88.30
2158;DHT22;41972;48.774;9.282;2023-09-07T11:56:30;25.80;90.40
2158;DHT22;41972;48.774;9.282;2023-09-07T11:58:55;25.90;91.90
2158;DHT22;41972;48.774;9.282;2023-09-07T12:01:21;25.80;90.40
2158;DHT22;41972;48.774;9.282;2023-09-07T12:03:47;25.70;91.10
2158;DHT22;41972;48.774;9.282;2023-09-07T12:06:13;25.80;91.00
2158;DHT22;41972;48.774;9.282;2023-09-07T12:08:42;26.00;92.00
2158;DHT22;41972;48.774;9.282;2023-09-07T12:11:08;26.10;93.60
2158;DHT22;41972;48.774;9.282;2023-09-07T12:13:33;26.20;92.30
2158;DHT22;41972;48.774;9.282;2023-09-07T12:15:59;26.30;91.80
2158;DHT22;41972;48.774;9.282;2023-09-07T12:18:27;26.30;91.20
2158;DHT22;41972;48.774;9.282;2023-09-07T12:20:53;26.30;89.20
2158;DHT22;41972;48.774;9.282;2023-09-07T12:23:18;26.20;90.10
2158;DHT22;41972;48.774;9.282;2023-09-07T12:25:44;26.20;90.50
2158;DHT22;41972;48.774;9.282;2023-09-07T12:28:09;26.40;88.40
2158;DHT22;41972;48.774;9.282;2023-09-07T12:30:35;26.30;92.00
2158;DHT22;41972;48.774;9.282;2023-09-07T12:33:00;26.30;90.20
2158;DHT22;41972;48.774;9.282;2023-09-07T12:35:26;26.40;90.10
2158;DHT22;41972;48.774;9.282;2023-09-07T12:37:52;26.40;90.70
2158;DHT22;41972;48.774;9.282;2023-09-07T12:40:17;26.40;89.40
2158;DHT22;41972;48.774;9.282;2023-09-07T12:42:44;26.50;87.30
2158;DHT22;41972;48.774;9.282;2023-09-07T12:45:10;26.60;88.30
2158;DHT22;41972;48.774;9.282;2023-09-07T12:47:36;26.60;89.80
2158;DHT22;41972;48.774;9.282;2023-09-07T12:50:03;26.80;91.30
2158;DHT22;41972;48.774;9.282;2023-09-07T12:52:30;26.90;90.00
2158;DHT22;41972;48.774;9.282;2023-09-07T12:54:56;27.00;84.20
2158;DHT22;41972;48.774;9.282;2023-09-07T12:57:21;27.00;86.30
2158;DHT22;41972;48.774;9.282;2023-09-07T12:59:47;27.20;86.60
2158;DHT22;41972;48.774;9.282;2023-09-07T13:02:13;27.30;84.80
2158;DHT22;41972;48.774;9.282;2023-09-07T13:04:38;27.20;82.30
2158;DHT22;41972;48.774;9.282;2023-09-07T13:07:04;27.10;79.10
2158;DHT22;41972;48.774;9.282;2023-09-07T13:09:30;27.20;79.50
2158;DHT22;41972;48.774;9.282;2023-09-07T13:11:55;27.30;79.80
2158;DHT22;41972;48.774;9.282;2023-09-07T13:14:21;27.30;81.90
2158;DHT22;41972;48.774;9.282;2023-09-07T13:16:46;27.10;78.60
2158;DHT22;41972;48.774;9.282;2023-09-07T13:19:12;27.30;80.10
2158;DHT22;41972;48.774;9.282;2023-09-07T13:21:37;27.40;77.20
2158;DHT22;41972;48.774;9.282;2023-09-07T13:24:03;27.30;77.40
2158;DHT22;41972;48.774;9.282;2023-09-07T13:26:29;27.30;80.50
2158;DHT22;41972;48.774;9.282;2023-09-07T13:28:54;27.40;77.50
2158;DHT22;41972;48.774;9.282;2023-09-07T13:31:20;27.40;77.70
2158;DHT22;41972;48.774;9.282;2023-09-07T13:33:45;27.40;76.60
2158;DHT22;41972;48.774;9.282;2023-09-07T13:36:11;27.50;80.30
2158;DHT22;41972;48.774;9.282;2023-09-07T13:38:37;27.40;76.60
2158;DHT22;41972;48.774;9.282;2023-09-07T13:41:02;27.40;78.80
2158;DHT22;41972;48.774;9.282;2023-09-07T13:43:28;27.60;79.80
2158;DHT22;41972;48.774;9.282;2023-09-07T13:45:53;27.50;75.80
2158;DHT22;41972;48.774;9.282;2023-09-07T13:48:19;27.60;79.70
2158;DHT22;41972;48.774;9.282;2023-09-07T13:50:44;27.60;75.20
2158;DHT22;41972;48.774;9.282;2023-09-07T13:53:10;27.70;79.60
2158;DHT22;41972;48.774;9.282;2023-09-07T13:55:35;27.80;77.10
2158;DHT22;41972;48.774;9.282;2023-09-07T13:58:01;27.80;77.70
2158;DHT22;41972;48.774;9.282;2023-09-07T14:00:27;27.60;73.70
2158;DHT22;41972;48.774;9.282;2023-09-07T14:02:52;27.80;74.70
2158;DHT22;41972;48.774;9.282;2023-09-07T14:05:18;27.70;77.50
2158;DHT22;41972;48.774;9.282;2023-09-07T14:07:43;27.70;77.30
2158;DHT22;41972;48.774;9.282;2023-09-07T14:10:09;27.70;74.80
2158;DHT22;41972;48.774;9.282;2023-09-07T14:12:35;27.60;75.80
2158;DHT22;41972;48.774;9.282;2023-09-07T14:15:00;27.60;76.20
2158;DHT22;41972;48.774;9.282;2023-09-07T14:17:26;27.70;81.20
2158;DHT22;41972;48.774;9.282;2023-09-07T14:19:51;27.60;77.30
2158;DHT22;41972;48.774;9.282;2023-09-07T14:22:17;27.70;77.40
2158;DHT22;41972;48.774;9.282;2023-09-07T14:24:42;27.70;81.10
2158;DHT22;41972;48.774;9.282;2023-09-07T14:27:09;27.70;76.80
2158;DHT22;41972;48.774;9.282;2023-09-07T14:29:35;27.70;77.30
2158;DHT22;41972;48.774;9.282;2023-09-07T14:32:02;27.70;75.70
2158;DHT22;41972;48.774;9.282;2023-09-07T14:34:28;27.70;77.70
2158;DHT22;41972;48.774;9.282;2023-09-07T14:36:53;27.70;77.50
2158;DHT22;41972;48.774;9.282;2023-09-07T14:39:20;27.70;77.40
2158;DHT22;41972;48.774;9.282;2023-09-07T14:41:49;27.70;77.50
2158;DHT22;41972;48.774;9.282;2023-09-07T14:44:15;27.80;80.20
2158;DHT22;41972;48.774;9.282;2023-09-07T14:46:41;27.90;77.60
2158;DHT22;41972;48.774;9.282;2023-09-07T14:49:06;27.90;77.10
2158;DHT22;41972;48.774;9.282;2023-09-07T14:51:32;27.80;76.40
2158;DHT22;41972;48.774;9.282;2023-09-07T14:53:57;27.70;77.10
2158;DHT22;41972;48.774;9.282;2023-09-07T14:56:24;27.70;73.90
2158;DHT22;41972;48.774;9.282;2023-09-07T14:58:50;27.70;74.50
2158;DHT22;41972;48.774;9.282;2023-09-07T15:01:15;27.70;77.00
2158;DHT22;41972;48.774;9.282;2023-09-07T15:03:41;27.70;75.90
2158;DHT22;41972;48.774;9.282;2023-09-07T15:06:07;27.70;75.40
2158;DHT22;41972;48.774;9.282;2023-09-07T15:08:33;27.70;73.80
2158;DHT22;41972;48.774;9.282;2023-09-07T15:10:59;27.70;75.60
2158;DHT22;41972;48.774;9.282;2023-09-07T15:13:25;27.70;74.60
2158;DHT22;41972;48.774;9.282;2023-09-07T15:15:51;27.70;75.20
2158;DHT22;41972;48.774;9.282;2023-09-07T15:18:16;27.70;74.10
2158;DHT22;41972;48.774;9.282;2023-09-07T15:20:42;27.70;75.40
2158;DHT22;41972;48.774;9.282;2023-09-07T15:23:08;27.60;74.90
2158;DHT22;41972;48.774;9.282;2023-09-07T15:25:33;27.70;72.00
2158;DHT22;41972;48.774;9.282;2023-09-07T15:27:59;27.60;75.10
2158;DHT22;41972;48.774;9.282;2023-09-07T15:30:25;27.60;74.50
2158;DHT22;41972;48.774;9.282;2023-09-07T15:32:50;27.60;73.60
2158;DHT22;41972;48.774;9.282;2023-09-07T15:35:16;27.60;72.50
2158;DHT22;41972;48.774;9.282;2023-09-07T15:37:42;27.50;70.90
2158;DHT22;41972;48.774;9.282;2023-09-07T15:40:11;27.40;70.00
2158;DHT22;41972;48.774;9.282;2023-09-07T15:42:37;27.50;73.10
2158;DHT22;41972;48.774;9.282;2023-09-07T15:45:03;27.40;70.60